Etusivu
METAR-TAF:

METAR-TAF

Lentoasemat :

Sir Seretse Khaman kansainvälinen lentoasema

Gaborone, Botswana

Leveyspiiri: 24-13S, Pituuspiiri: 025-55E, korkeus merenpinnasta: 1005 m

Tämänhetkinen sää

Tämä raportti tehtiin 35 minuuttia sitten, kello 12.00 UTC
Lämpötila 28°C
Kosteus 8%
Ilmanpaine 1020 hPa
Näkyvyys 10 km tai enemmän
ei pilviä alle 1500 m:ssä eikä cumulonimbus-pilviä

METAR: FBSK 131200Z /////KT CAVOK 28/M09 Q1020 NOSIG

Aika: 14:35 (12:35 UTC)

Sääennuste

Tämä raportti tehtiin 2 tuntia ja 35 minuuttia sitten, kello 10.00 UTC
Ennuste voimassa 13. päivästä klo 12 UTC - 14. päivään klo 18 UTC
Tuuli 5 kn pohjoisen/luoteesta
Näkyvyys 10 km tai enemmän
ei pilviä alle 1500 m:ssä eikä cumulonimbus-pilviä
Tulossa
14. päivästä klo 06 UTC - 14. päivään klo 08 UTC
Tuuli 6 kn etelästä

TAF: FBSK 131000Z 1312/1418 330005KT CAVOK BECMG 1406/1408 18006KT

Säähavainnot ja -ennusteet yli 4000 lentoasemalta (METAR- ja TAF-raportit).

Käytössä olevat sääasemat on merkitty karttaan keltaisilla ja punaisilla pisteillä.

Aseta hiiri pisteen päälle nähdäksesi sääaseman nimen.

Klikkaa sitten nähdäksesi säähavainnot ja -ennusteet.

Kartan vaihtaminen: klikkaa mustalla rastilla varustettuja vihreitä pisteitä, niin voit zoomata sisään; viivalla varustettua vihreää pistettä, niin voit zoomata ulos tai vihreitä nuolia, niin pääset viereisille kartoille.


METAR-TAF: